Latest Coastal Weather Observations for Mandora

IDW60701

Issued at 8:05 pm WST Sunday 21 September 2014 (issued every 10 minutes, with the page automatically refreshed every 10 minutes)

About coastal observations | Map of coastal stations | Coastal observations for WA | Marine services | Other Formats
Station Details ID: 004019 Name: MANDORA Lat: -19.74 Lon: 120.84 Height: 7.5 m
Data from the previous 72 hours. | See also: Recent months at Mandora
Date/Time
WST
Temp

°C
Wind Pressure Rain
since 9am
mm
Weather Cloud Vis
km
Sea
Height
m
Swell
Dir
 
Speed
knots
Gust
knots
hPa Trend Height
m
Period
s
Dir
21/08:00pm 26.2 W 12 17 1012.5 - 0.0 - - - - - - -
21/07:30pm 27.0 W 12 19 1012.3 - 0.0 - - - - - - -
21/07:00pm 27.0 W 11 17 1012.1 - 0.0 - - - - - - -
21/06:30pm 26.4 WNW 9 13 1011.9 - 0.0 - - - - - - -
21/06:00pm 27.4 WNW 10 14 1011.5 - 0.0 - - - - - - -
21/05:30pm 29.8 NW 11 17 1011.3 - 0.0 - - - - - - -
21/05:00pm 32.5 W 12 16 1010.7 - 0.0 - - - - - - -
21/04:30pm 32.2 W 14 21 1010.7 - 0.0 - - - - - - -
21/04:00pm 32.4 WNW 12 18 1010.9 - 0.0 - - - - - - -
21/03:30pm 33.2 W 14 19 1010.9 - 0.0 - - - - - - -
21/03:00pm 34.0 W 14 20 1011.1 - 0.0 - - - - - - -
21/02:30pm 34.4 W 14 20 1011.3 - 0.0 - - - - - - -
21/02:00pm 34.4 W 13 19 1011.4 - 0.0 - - - - - - -
21/01:30pm 34.5 W 13 19 1011.7 - 0.0 - - - - - - -
21/01:00pm 34.2 WNW 12 17 1012.0 - 0.0 - - - - - - -
21/12:30pm 34.2 W 10 14 1012.5 - 0.0 - - - - - - -
21/12:00pm 34.1 WNW 12 18 1013.2 - 0.0 - - - - - - -
21/11:30am 34.3 WNW 9 12 1013.7 - 0.0 - - - - - - -
21/11:00am 33.4 NW 7 12 1014.3 - 0.0 - - - - - - -
21/10:30am 32.0 NW 9 13 1014.8 - 0.0 - - - - - - -
21/10:00am 31.5 NW 8 10 1015.0 - 0.0 - - - - - - -
21/09:30am 31.1 NW 7 9 1015.1 - 0.0 - - - - - - -
21/09:00am 31.3 N 6 9 1015.1 - 0.0 - - - - - - -
21/08:30am 30.7 N 5 8 1015.1 - 0.0 - - - - - - -
21/08:00am 27.6 CALM 0 0 1014.8 - 0.0 - - - - - - -
21/07:30am 24.3 CALM 0 0 1014.6 - 0.0 - - - - - - -
21/07:00am 21.2 NNE 3 5 1014.2 - 0.0 - - - - - - -
21/06:30am 19.2 E 4 7 1013.8 - 0.0 - - - - - - -
21/06:00am 18.6 SE 3 7 1013.0 - 0.0 - - - - - - -
21/05:30am 19.8 WSW 7 8 1012.5 - 0.0 - - - - - - -
21/05:00am 20.4 W 8 10 1012.1 - 0.0 - - - - - - -
21/04:30am 20.5 WSW 7 9 1012.0 - 0.0 - - - - - - -
21/04:00am 20.9 SW 8 9 1011.6 - 0.0 - - - - - - -
21/03:30am 21.5 SW 6 9 1011.6 - 0.0 - - - - - - -
21/03:00am 22.4 WSW 6 7 1011.8 - 0.0 - - - - - - -
21/02:30am 24.0 SSW 8 11 1011.9 - 0.0 - - - - - - -
21/02:00am 23.2 SSW 7 8 1012.2 - 0.0 - - - - - - -
21/01:30am 22.7 SSW 8 9 1012.5 - 0.0 - - - - - - -
21/01:00am 22.7 SSW 7 9 1012.6 - 0.0 - - - - - - -
21/12:30am 22.4 SSW 6 8 1012.8 - 0.0 - - - - - - -
21/12:00am 22.5 SW 8 9 1013.0 - 0.0 - - - - - - -
 
Date/Time
WST
Temp

°C
Wind Pressure Rain
since 9am
mm
Weather Cloud Vis
km
Sea
Height
m
Swell
Dir
 
Speed
knots
Gust
knots
hPa Trend Height
m
Period
s
Dir
20/11:30pm 22.7 WSW 6 9 1013.3 - 0.0 - - - - - - -
20/11:00pm 23.6 WSW 9 11 1013.3 - 0.0 - - - - - - -
20/10:30pm 24.5 WSW 9 12 1013.4 - 0.0 - - - - - - -
20/10:00pm 23.4 W 6 8 1013.5 - 0.0 - - - - - - -
20/09:30pm 24.7 W 7 9 1013.7 - 0.0 - - - - - - -
20/09:00pm 24.8 W 7 10 1013.7 - 0.0 - - - - - - -
20/08:30pm 25.1 WSW 7 12 1013.4 - 0.0 - - - - - - -
20/08:00pm 25.2 W 7 9 1013.0 - 0.0 - - - - - - -
20/07:30pm 25.6 W 6 7 1012.6 - 0.0 - - - - - - -
20/07:00pm 26.8 WSW 6 7 1012.2 - 0.0 - - - - - - -
20/06:30pm 28.3 WSW 8 11 1011.8 - 0.0 - - - - - - -
20/06:00pm 29.5 W 8 9 1011.4 - 0.0 - - - - - - -
20/05:30pm 31.5 W 7 10 1010.9 - 0.0 - - - - - - -
20/05:00pm 33.9 WNW 9 12 1010.7 - 0.0 - - - - - - -
20/04:30pm 37.1 W 7 11 1010.4 - 0.0 - - - - - - -
20/04:00pm 37.7 NW 7 11 1010.3 - 0.0 - - - - - - -
20/03:30pm 38.0 WNW 9 13 1010.2 - 0.0 - - - - - - -
20/03:00pm 37.8 NW 9 14 1010.3 - 0.0 - - - - - - -
20/02:30pm 37.8 WNW 10 13 1010.6 - 0.0 - - - - - - -
20/02:00pm 38.1 WNW 10 16 1010.7 - 0.0 - - - - - - -
20/01:30pm 38.9 NW 9 13 1010.9 - 0.0 - - - - - - -
20/01:00pm 38.9 N 10 18 1011.1 - 0.0 - - - - - - -
20/12:30pm 39.9 E 5 11 1011.6 - 0.0 - - - - - - -
20/12:00pm 38.7 SW 5 11 1012.2 - 0.0 - - - - - - -
20/11:30am 38.4 NNW 8 13 1012.9 - 0.0 - - - - - - -
20/11:00am 37.9 NNW 4 6 1013.4 - 0.0 - - - - - - -
20/10:30am 37.5 S 8 13 1013.8 - 0.0 - - - - - - -
20/10:00am 36.8 SSE 7 10 1014.2 - 0.0 - - - - - - -
20/09:30am 36.2 SW 8 12 1014.5 - 0.0 - - - - - - -
20/09:00am 35.1 SW 7 10 1014.7 - 0.0 - - - - - - -
20/08:30am 31.3 NW 5 7 1014.7 - 0.0 - - - - - - -
20/08:00am 27.6 NW 4 5 1014.7 - 0.0 - - - - - - -
20/07:30am 25.7 WSW 5 7 1014.4 - 0.0 - - - - - - -
20/07:00am 21.2 WSW 4 5 1014.2 - 0.0 - - - - - - -
20/06:30am 18.2 WSW 6 6 1013.9 - 0.0 - - - - - - -
20/06:00am 16.6 WNW 6 8 1013.6 - 0.0 - - - - - - -
20/05:30am 17.0 W 7 8 1013.3 - 0.0 - - - - - - -
20/05:00am 16.8 W 6 7 1013.1 - 0.0 - - - - - - -
20/04:30am 16.8 W 5 7 1013.1 - 0.0 - - - - - - -
20/04:00am 17.2 SW 4 5 1012.9 - 0.0 - - - - - - -
20/03:30am 18.1 WSW 5 7 1012.7 - 0.0 - - - - - - -
20/03:00am 19.2 SW 6 7 1012.7 - 0.0 - - - - - - -
20/02:30am 19.7 SW 6 8 1012.8 - 0.0 - - - - - - -
20/02:00am 19.9 WSW 6 7 1012.9 - 0.0 - - - - - - -
20/01:30am 20.6 WSW 4 6 1013.1 - 0.0 - - - - - - -
20/01:00am 21.8 WSW 6 8 1013.2 - 0.0 - - - - - - -
20/12:30am 21.7 W 6 7 1013.4 - 0.0 - - - - - - -
20/12:00am 22.8 NNE 4 10 1013.7 - 0.0 - - - - - - -
 
Date/Time
WST
Temp

°C
Wind Pressure Rain
since 9am
mm
Weather Cloud Vis
km
Sea
Height
m
Swell
Dir
 
Speed
knots
Gust
knots
hPa Trend Height
m
Period
s
Dir
19/11:30pm 22.4 W 7 9 1014.1 - 0.0 - - - - - - -
19/11:00pm 21.5 WNW 7 13 1014.4 - 0.0 - - - - - - -
19/10:30pm 22.0 WSW 6 7 1014.4 - 0.0 - - - - - - -
19/10:00pm 21.5 W 6 6 1014.6 - 0.0 - - - - - - -
19/09:30pm 22.3 WSW 4 5 1014.6 - 0.0 - - - - - - -
19/09:00pm 23.3 W 5 6 1014.6 - 0.0 - - - - - - -
19/08:30pm 24.6 W 6 9 1014.3 - 0.0 - - - - - - -
19/08:00pm 25.4 W 7 9 1014.1 - 0.0 - - - - - - -
19/07:30pm 25.1 W 6 7 1013.9 - 0.0 - - - - - - -
19/07:00pm 25.9 W 6 7 1013.5 - 0.0 - - - - - - -
19/06:30pm 27.0 W 5 7 1013.2 - 0.0 - - - - - - -
19/06:00pm 28.7 WNW 6 8 1012.7 - 0.0 - - - - - - -
19/05:30pm 31.6 WNW 7 9 1012.4 - 0.0 - - - - - - -
19/05:00pm 33.5 WNW 9 12 1012.1 - 0.0 - - - - - - -
19/04:30pm 34.2 WNW 10 14 1012.0 - 0.0 - - - - - - -
19/04:00pm 35.1 WNW 11 14 1011.8 - 0.0 - - - - - - -
19/03:30pm 35.8 WNW 12 17 1011.6 - 0.0 - - - - - - -
19/03:00pm 36.3 WNW 12 17 1011.7 - 0.0 - - - - - - -
19/02:30pm 36.8 W 13 19 1012.0 - 0.0 - - - - - - -
19/02:00pm 36.5 WNW 12 18 1012.3 - 0.0 - - - - - - -
19/01:30pm 36.7 WNW 12 17 1012.6 - 0.0 - - - - - - -
19/01:00pm 37.1 W 12 17 1012.7 - 0.0 - - - - - - -
19/12:30pm 37.5 NW 13 21 1013.1 - 0.0 - - - - - - -
19/12:00pm 36.8 NW 11 17 1013.4 - 0.0 - - - - - - -
19/11:30am 37.1 W 10 15 1013.8 - 0.0 - - - - - - -
19/11:00am 36.8 W 9 14 1014.4 - 0.0 - - - - - - -
19/10:30am 36.3 SW 7 13 1014.9 - 0.0 - - - - - - -
19/10:00am 35.2 WSW 8 13 1015.2 - 0.0 - - - - - - -
19/09:30am 33.0 SW 4 9 1015.5 - 0.0 - - - - - - -
19/09:00am 29.9 WNW 4 6 1015.7 - 0.0 - - - - - - -
19/08:30am 27.1 NNW 4 6 1015.9 - 0.0 - - - - - - -
19/08:00am 24.1 N 5 7 1015.8 - 0.0 - - - - - - -
19/07:30am 21.3 WSW 3 6 1015.2 - 0.0 - - - - - - -
19/07:00am 18.6 CALM 0 3 1014.9 - 0.0 - - - - - - -
19/06:30am 16.3 SW 1 5 1014.5 - 0.0 - - - - - - -
19/06:00am 16.5 SW 6 8 1014.0 - 0.0 - - - - - - -
19/05:30am 15.7 WSW 2 5 1013.9 - 0.0 - - - - - - -
19/05:00am 16.9 SW 6 7 1013.6 - 0.0 - - - - - - -
19/04:30am 16.2 S 5 7 1013.5 - 0.0 - - - - - - -
19/04:00am 17.0 SW 2 4 1013.5 - 0.0 - - - - - - -
19/03:30am 18.3 SSW 5 7 1013.3 - 0.0 - - - - - - -
19/03:00am 19.0 SW 4 5 1013.4 - 0.0 - - - - - - -
19/02:30am 19.6 SW 6 8 1013.6 - 0.0 - - - - - - -
19/01:00am 17.9 WSW 3 5 1014.1 - 0.0 - - - - - - -
19/12:30am 18.4 WSW 3 4 1014.3 - 0.0 - - - - - - -
19/12:00am 20.1 WNW 4 5 1014.6 - 0.0 - - - - - - -
 
Date/Time
WST
Temp

°C
Wind Pressure Rain
since 9am
mm
Weather Cloud Vis
km
Sea
Height
m
Swell
Dir
 
Speed
knots
Gust
knots
hPa Trend Height
m
Period
s
Dir
18/11:30pm 20.4 W 3 5 1014.8 - 0.0 - - - - - - -
18/11:00pm 21.2 W 7 8 1015.0 - 0.0 - - - - - - -
18/10:30pm 20.7 W 6 7 1015.2 - 0.0 - - - - - - -
18/10:00pm 20.1 W 5 7 1015.4 - 0.0 - - - - - - -
18/09:30pm 20.7 W 5 6 1015.4 - 0.0 - - - - - - -
18/09:00pm 20.7 WSW 5 6 1015.3 - 0.0 - - - - - - -
18/08:30pm 21.0 WSW 5 6 1015.2 - 0.0 - - - - - - -

Other Formats:

Comma delimited format used in spreadsheet applications
http://www.bom.gov.au/fwo/IDW60701/IDW60701.94200.axf

JavaScript Object Notation format (JSON) in row-major order
http://www.bom.gov.au/fwo/IDW60701/IDW60701.94200.json